createdAt,value
2023-05-05T00:02:09.981Z,37.94
2023-05-05T00:05:14.170Z,38.03
2023-05-05T00:08:17.050Z,37.56
2023-05-05T00:11:19.798Z,37.91
2023-05-05T00:14:22.580Z,37.65
2023-05-05T00:17:25.397Z,37.81
2023-05-05T00:20:29.640Z,37.91
2023-05-05T00:23:32.487Z,37.88
2023-05-05T00:26:35.267Z,37.71
2023-05-05T00:29:38.043Z,37.75
2023-05-05T00:32:40.995Z,37.99
2023-05-05T00:35:46.569Z,37.77
2023-05-05T00:38:49.481Z,37.60
2023-05-05T00:41:52.284Z,37.84
2023-05-05T00:44:55.113Z,37.68
2023-05-05T00:47:58.658Z,37.76
2023-05-05T00:51:02.881Z,37.97
2023-05-05T00:54:06.568Z,37.63
2023-05-05T00:57:09.573Z,37.69
2023-05-05T01:00:12.789Z,37.59
2023-05-05T01:03:15.701Z,37.94
2023-05-05T01:06:25.425Z,37.61
2023-05-05T01:09:36.274Z,37.71
2023-05-05T01:12:44.650Z,38.12
2023-05-05T01:15:49.334Z,37.80
2023-05-05T01:18:55.718Z,37.63
2023-05-05T01:22:01.518Z,37.82
2023-05-05T01:25:22.793Z,38.16
2023-05-05T01:28:29.116Z,37.76
2023-05-05T01:31:51.653Z,37.89
2023-05-05T01:34:56.913Z,37.89
2023-05-05T01:38:01.858Z,37.60
2023-05-05T01:41:06.549Z,37.63
2023-05-05T01:44:10.713Z,37.46
2023-05-05T01:47:16.988Z,37.66
2023-05-05T01:50:20.562Z,37.75
2023-05-05T01:53:24.824Z,37.50
2023-05-05T01:56:28.434Z,37.69
2023-05-05T01:59:31.818Z,37.71
2023-05-05T02:02:36.873Z,37.71
2023-05-05T02:05:40.907Z,37.77
2023-05-05T02:08:45.112Z,37.48
2023-05-05T02:11:48.029Z,37.75
2023-05-05T02:14:51.073Z,37.91
2023-05-05T02:17:55.630Z,37.49
2023-05-05T02:20:58.431Z,37.86
2023-05-05T02:24:01.417Z,37.79
2023-05-05T02:27:05.245Z,37.67
2023-05-05T02:30:09.838Z,37.69
2023-05-05T02:33:17.635Z,37.45
2023-05-05T02:36:21.958Z,37.65
2023-05-05T02:39:27.481Z,37.48
2023-05-05T02:42:33.443Z,37.51
2023-05-05T02:45:36.207Z,37.85
2023-05-05T02:48:40.426Z,37.69
2023-05-05T02:51:43.335Z,37.63
2023-05-05T02:54:46.180Z,37.58
2023-05-05T02:57:51.028Z,37.45
2023-05-05T03:00:57.071Z,37.58
2023-05-05T03:04:08.437Z,37.75
2023-05-05T03:07:14.422Z,37.70
2023-05-05T03:10:18.906Z,37.97
2023-05-05T03:13:21.963Z,37.96
2023-05-05T03:16:25.810Z,37.99
2023-05-05T03:19:30.816Z,38.23
2023-05-05T03:22:36.692Z,38.16
2023-05-05T03:25:42.827Z,38.10
2023-05-05T03:28:45.647Z,38.20
2023-05-05T03:31:48.501Z,37.84
2023-05-05T03:34:52.675Z,38.10
2023-05-05T03:37:55.802Z,38.00
2023-05-05T03:40:58.675Z,37.77
2023-05-05T03:44:01.617Z,38.16
2023-05-05T03:47:04.474Z,38.00
2023-05-05T03:50:09.713Z,38.28
2023-05-05T03:53:12.657Z,37.89
2023-05-05T03:56:15.532Z,37.78
2023-05-05T03:59:18.518Z,37.79
2023-05-05T04:02:21.423Z,37.89
2023-05-05T04:05:25.634Z,38.12
2023-05-05T04:08:28.477Z,38.15
2023-05-05T04:11:31.419Z,37.86
2023-05-05T04:14:34.200Z,37.67
2023-05-05T04:17:37.001Z,37.86
2023-05-05T04:20:41.141Z,37.92
2023-05-05T04:23:43.992Z,37.74
2023-05-05T04:26:46.755Z,38.19
2023-05-05T04:29:49.577Z,38.34
2023-05-05T04:32:52.369Z,38.82
2023-05-05T04:35:56.595Z,38.51
2023-05-05T04:38:59.484Z,38.52
2023-05-05T04:42:02.402Z,38.84
2023-05-05T04:45:05.491Z,38.39
2023-05-05T04:48:08.424Z,38.67
2023-05-05T04:51:12.888Z,38.66
2023-05-05T04:54:15.681Z,38.22
2023-05-05T04:57:18.425Z,38.02
2023-05-05T05:00:21.740Z,37.08
2023-05-05T05:03:24.631Z,37.35
2023-05-05T05:06:29.388Z,37.01
2023-05-05T05:09:32.144Z,37.18
2023-05-05T05:12:34.936Z,37.19
2023-05-05T05:15:38.288Z,36.88
2023-05-05T05:18:41.138Z,36.89
2023-05-05T05:21:45.218Z,36.98
2023-05-05T05:24:48.034Z,37.08
2023-05-05T05:28:02.298Z,37.07
2023-05-05T05:31:12.238Z,37.08
2023-05-05T05:34:15.092Z,36.92
2023-05-05T05:37:19.834Z,37.16
2023-05-05T05:40:22.800Z,37.04
2023-05-05T05:43:25.884Z,37.00
2023-05-05T05:46:28.888Z,36.92
2023-05-05T05:49:32.156Z,36.69
2023-05-05T05:52:36.571Z,37.00
2023-05-05T05:55:41.849Z,38.18
2023-05-05T05:58:45.411Z,39.46
2023-05-05T06:01:48.369Z,39.36
2023-05-05T06:04:52.201Z,39.24
2023-05-05T06:07:57.997Z,39.37
2023-05-05T06:11:05.006Z,38.42
2023-05-05T06:14:08.553Z,38.64
2023-05-05T06:17:11.779Z,38.37
2023-05-05T06:20:15.901Z,38.82
2023-05-05T06:23:20.480Z,38.34
2023-05-05T06:26:23.691Z,38.73
2023-05-05T06:29:27.086Z,38.56
2023-05-05T06:32:30.309Z,38.46
2023-05-05T06:35:34.779Z,37.53
2023-05-05T06:38:39.257Z,37.18
2023-05-05T06:41:43.082Z,37.18
2023-05-05T06:44:46.802Z,36.51
2023-05-05T06:47:50.733Z,35.84
2023-05-05T06:50:56.660Z,35.93
2023-05-05T06:54:01.136Z,36.38
2023-05-05T06:57:04.158Z,36.02
2023-05-05T07:00:09.912Z,35.84
2023-05-05T07:03:15.898Z,36.03
2023-05-05T07:06:19.123Z,35.91
2023-05-05T07:09:23.683Z,36.24
2023-05-05T07:12:26.775Z,35.80
2023-05-05T07:15:29.966Z,35.68
2023-05-05T07:18:32.927Z,35.87
2023-05-05T07:21:36.156Z,35.48
2023-05-05T07:24:40.334Z,35.13
2023-05-05T07:27:43.124Z,35.40
2023-05-05T07:30:46.021Z,35.34
2023-05-05T07:33:49.604Z,35.45
2023-05-05T07:36:52.333Z,34.95
2023-05-05T07:39:56.613Z,35.03
2023-05-05T07:42:59.334Z,34.91
2023-05-05T07:46:02.106Z,34.84
2023-05-05T07:49:04.947Z,35.05
2023-05-05T07:52:07.737Z,34.86
2023-05-05T07:55:11.869Z,34.91
2023-05-05T07:58:14.640Z,34.84
2023-05-05T08:01:17.401Z,34.51
2023-05-05T08:04:20.255Z,34.90
2023-05-05T08:07:23.113Z,34.83
2023-05-05T08:10:27.259Z,34.23
2023-05-05T08:13:30.525Z,34.35
2023-05-05T08:16:33.356Z,34.29
2023-05-05T08:19:36.194Z,34.16
2023-05-05T08:22:38.956Z,34.31
2023-05-05T08:25:43.167Z,33.98
2023-05-05T08:28:46.722Z,34.01
2023-05-05T08:31:49.580Z,34.06
2023-05-05T08:34:52.363Z,34.25
2023-05-05T08:37:56.674Z,34.68
2023-05-05T08:41:03.730Z,34.72
2023-05-05T08:44:06.506Z,34.35
2023-05-05T08:47:12.005Z,34.80
2023-05-05T08:50:16.001Z,34.99
2023-05-05T08:53:19.035Z,34.98
2023-05-05T08:56:23.344Z,35.30
2023-05-05T08:59:30.343Z,35.17
2023-05-05T09:02:33.879Z,35.62
2023-05-05T09:05:36.964Z,35.78
2023-05-05T09:08:40.036Z,35.48
2023-05-05T09:11:45.027Z,35.70
2023-05-05T09:14:48.154Z,35.98
2023-05-05T09:17:51.179Z,35.69
2023-05-05T09:20:54.092Z,36.15
2023-05-05T09:24:09.153Z,35.88
2023-05-05T09:27:23.656Z,35.98
2023-05-05T09:30:27.159Z,36.16
2023-05-05T09:33:30.860Z,36.05
2023-05-05T09:36:44.252Z,35.88
2023-05-05T09:39:54.749Z,35.58
2023-05-05T09:43:03.259Z,35.72
2023-05-05T09:46:08.944Z,35.60
2023-05-05T09:49:18.759Z,35.51
2023-05-05T09:52:21.934Z,35.58
2023-05-05T09:55:24.787Z,35.58
2023-05-05T09:58:29.468Z,35.81
2023-05-05T10:01:32.288Z,35.80
2023-05-05T10:04:36.141Z,35.76
2023-05-05T10:07:39.325Z,35.81
2023-05-05T10:10:47.808Z,35.66
2023-05-05T10:13:51.940Z,35.69
2023-05-05T10:16:55.850Z,35.71
2023-05-05T10:19:59.965Z,36.01
2023-05-05T10:23:03.709Z,35.81
2023-05-05T10:26:07.474Z,36.12
2023-05-05T10:29:14.689Z,36.16
2023-05-05T10:32:51.144Z,36.05
2023-05-05T10:35:48.487Z,36.67
2023-05-05T10:38:53.229Z,37.03
2023-05-05T10:41:56.003Z,37.80
2023-05-05T10:45:00.261Z,37.71
2023-05-05T10:48:05.521Z,38.77
2023-05-05T10:51:27.406Z,39.00
2023-05-05T10:54:38.468Z,38.94
2023-05-05T10:57:42.913Z,38.80
2023-05-05T11:00:53.491Z,41.67
2023-05-05T11:04:11.212Z,41.32
2023-05-05T11:07:24.544Z,41.83
2023-05-05T11:10:27.345Z,42.47
2023-05-05T11:13:30.212Z,42.23
2023-05-05T11:16:55.212Z,41.27
2023-05-05T11:19:59.393Z,40.61
2023-05-05T11:23:20.297Z,39.35
2023-05-05T11:26:41.477Z,38.39
2023-05-05T11:30:03.699Z,38.71
2023-05-05T11:33:24.965Z,37.88
2023-05-05T11:36:41.834Z,37.84
2023-05-05T11:39:52.217Z,37.83
2023-05-05T11:43:05.402Z,37.98
2023-05-05T11:46:11.566Z,38.20
2023-05-05T11:49:27.110Z,37.93
2023-05-05T11:52:31.244Z,37.57
2023-05-05T11:55:34.024Z,37.86
2023-05-05T11:58:36.817Z,37.63
2023-05-05T12:01:40.977Z,37.96
2023-05-05T12:04:43.895Z,37.65
2023-05-05T12:07:48.102Z,39.39
2023-05-05T12:10:50.894Z,39.42
2023-05-05T12:14:08.066Z,39.50
2023-05-05T12:17:10.841Z,39.80
2023-05-05T12:20:14.038Z,39.21
2023-05-05T12:23:18.271Z,39.55
2023-05-05T12:26:25.506Z,39.84
2023-05-05T12:29:30.065Z,39.97
2023-05-05T12:32:32.845Z,41.29
2023-05-05T12:35:35.919Z,40.91
2023-05-05T12:38:40.172Z,41.32
2023-05-05T12:41:42.984Z,41.60
2023-05-05T12:44:46.813Z,42.03
2023-05-05T12:47:49.678Z,42.39
2023-05-05T12:50:52.748Z,41.82
2023-05-05T12:54:07.307Z,42.22
2023-05-05T12:57:12.517Z,42.23
2023-05-05T13:00:16.362Z,42.85
2023-05-05T13:03:20.382Z,42.68
2023-05-05T13:06:24.821Z,43.01
2023-05-05T13:09:30.439Z,43.01
2023-05-05T13:12:33.299Z,42.23
2023-05-05T13:15:36.614Z,42.86
2023-05-05T13:18:45.789Z,42.97
2023-05-05T13:21:48.580Z,42.06
2023-05-05T13:24:53.078Z,42.85
2023-05-05T13:27:55.865Z,43.06
2023-05-05T13:30:59.734Z,43.05
2023-05-05T13:34:02.618Z,42.75
2023-05-05T13:37:05.385Z,42.63
2023-05-05T13:40:10.798Z,43.39
2023-05-05T13:43:13.620Z,42.56
2023-05-05T13:46:20.096Z,43.25
2023-05-05T13:49:25.048Z,42.53
2023-05-05T13:52:29.018Z,42.54
2023-05-05T13:55:34.623Z,42.53
2023-05-05T13:58:37.982Z,42.64
2023-05-05T14:01:40.916Z,42.96
2023-05-05T14:04:43.737Z,42.74
2023-05-05T14:07:46.925Z,42.81
2023-05-05T14:10:52.175Z,42.83
2023-05-05T14:13:55.205Z,42.57
2023-05-05T14:16:58.138Z,42.84
2023-05-05T14:20:00.981Z,43.27
2023-05-05T14:23:03.746Z,43.14
2023-05-05T14:26:09.130Z,43.06
2023-05-05T14:29:12.003Z,42.75
2023-05-05T14:32:14.831Z,42.26
2023-05-05T14:35:17.784Z,40.93
2023-05-05T14:38:20.702Z,41.23
2023-05-05T14:41:24.947Z,41.43
2023-05-05T14:44:28.424Z,41.93
2023-05-05T14:47:31.212Z,41.55
2023-05-05T14:50:33.988Z,41.43
2023-05-05T14:53:36.940Z,41.67
2023-05-05T14:56:41.170Z,42.33
2023-05-05T14:59:45.781Z,42.27
2023-05-05T15:02:49.343Z,41.87
2023-05-05T15:08:54.814Z,42.18
2023-05-05T15:11:58.910Z,41.97
2023-05-05T15:15:01.694Z,42.13
2023-05-05T15:18:04.667Z,42.28
2023-05-05T15:21:07.600Z,41.90
2023-05-05T15:24:10.675Z,41.80
2023-05-05T15:27:14.834Z,42.41
2023-05-05T15:30:17.775Z,42.23
2023-05-05T15:33:20.606Z,42.04
2023-05-05T15:36:24.751Z,42.18
2023-05-05T15:39:27.574Z,42.25
2023-05-05T15:42:32.962Z,42.29
2023-05-05T15:45:36.055Z,41.94
2023-05-05T15:48:38.770Z,41.62
2023-05-05T15:51:41.877Z,42.08
2023-05-05T15:54:44.718Z,41.58
2023-05-05T15:57:48.812Z,42.08
2023-05-05T16:00:51.687Z,41.84
2023-05-05T16:03:54.456Z,41.67
2023-05-05T16:06:58.134Z,41.95
2023-05-05T16:10:00.961Z,42.15
2023-05-05T16:13:05.226Z,41.04
2023-05-05T16:16:08.269Z,40.74
2023-05-05T16:19:11.080Z,40.82
2023-05-05T16:22:13.884Z,40.42
2023-05-05T16:25:18.449Z,40.80
2023-05-05T16:28:22.512Z,40.21
2023-05-05T16:31:25.329Z,40.59
2023-05-05T16:34:28.248Z,40.23
2023-05-05T16:37:31.083Z,40.29
2023-05-05T16:40:33.832Z,40.17
2023-05-05T16:43:38.178Z,40.17
2023-05-05T16:46:41.024Z,40.14
2023-05-05T16:49:44.029Z,40.08
2023-05-05T16:52:46.875Z,39.97
2023-05-05T16:55:50.874Z,39.68
2023-05-05T16:58:55.024Z,39.96
2023-05-05T17:01:57.896Z,39.80
2023-05-05T17:05:00.785Z,39.45
2023-05-05T17:08:03.989Z,39.61
2023-05-05T17:11:06.799Z,39.31
2023-05-05T17:14:11.036Z,39.45
2023-05-05T17:17:13.868Z,39.24
2023-05-05T17:20:16.730Z,39.01
2023-05-05T17:23:21.223Z,39.22
2023-05-05T17:26:24.209Z,39.10
2023-05-05T17:29:28.508Z,38.82
2023-05-05T17:32:31.389Z,39.07
2023-05-05T17:35:34.206Z,38.80
2023-05-05T17:38:36.968Z,38.81
2023-05-05T17:41:39.721Z,39.08
2023-05-05T17:44:45.021Z,38.88
2023-05-05T17:47:49.259Z,38.66
2023-05-05T17:50:52.342Z,38.72
2023-05-05T17:53:55.101Z,38.70
2023-05-05T17:56:57.848Z,38.56
2023-05-05T18:00:03.404Z,38.73
2023-05-05T18:03:06.367Z,38.74
2023-05-05T18:06:09.331Z,38.85
2023-05-05T18:09:12.217Z,38.40
2023-05-05T18:12:14.986Z,38.72
2023-05-05T18:15:19.165Z,38.54
2023-05-05T18:18:22.315Z,38.66
2023-05-05T18:21:25.107Z,38.60
2023-05-05T18:24:28.236Z,38.59
2023-05-05T18:27:32.516Z,38.46
2023-05-05T18:30:36.801Z,38.16
2023-05-05T18:33:39.629Z,38.03
2023-05-05T18:36:42.422Z,38.09
2023-05-05T18:39:45.281Z,38.47
2023-05-05T18:42:48.241Z,38.17
2023-05-05T18:45:52.802Z,38.09
2023-05-05T18:48:55.955Z,38.01
2023-05-05T18:51:58.672Z,38.17
2023-05-05T18:55:01.649Z,38.96
2023-05-05T18:58:04.487Z,39.56
2023-05-05T19:01:08.952Z,39.24
2023-05-05T19:04:26.553Z,39.58
2023-05-05T19:07:35.788Z,40.13
2023-05-05T19:10:38.880Z,40.00
2023-05-05T19:13:43.028Z,40.15
2023-05-05T19:16:48.594Z,40.53
2023-05-05T19:19:51.596Z,40.44
2023-05-05T19:22:55.251Z,39.47
2023-05-05T19:25:58.234Z,40.31
2023-05-05T19:29:01.073Z,39.74
2023-05-05T19:32:05.520Z,39.57
2023-05-05T19:35:10.702Z,39.91
2023-05-05T19:38:13.674Z,39.42
2023-05-05T19:41:17.901Z,40.06
2023-05-05T19:44:22.548Z,39.45
2023-05-05T19:47:27.096Z,39.82
2023-05-05T19:50:30.773Z,39.51
2023-05-05T19:53:34.589Z,39.50
2023-05-05T19:56:37.360Z,39.53
2023-05-05T19:59:40.266Z,39.64
2023-05-05T20:02:45.405Z,39.54
2023-05-05T20:05:48.260Z,39.67
2023-05-05T20:08:51.164Z,39.83
2023-05-05T20:11:53.959Z,40.20
2023-05-05T20:14:56.706Z,40.37
2023-05-05T20:18:00.965Z,40.46
2023-05-05T20:21:03.976Z,40.61
2023-05-05T20:24:07.293Z,39.31
2023-05-05T20:27:10.031Z,38.11
2023-05-05T20:30:13.590Z,37.61
2023-05-05T20:33:17.762Z,37.57
2023-05-05T20:36:20.610Z,37.36
2023-05-05T20:39:23.429Z,37.43
2023-05-05T20:42:27.858Z,37.31
2023-05-05T20:45:31.786Z,37.34
2023-05-05T20:48:36.950Z,37.33
2023-05-05T20:51:42.889Z,37.45
2023-05-05T20:54:45.651Z,37.38
2023-05-05T20:57:48.474Z,37.43
2023-05-05T21:00:51.322Z,37.09
2023-05-05T21:03:55.452Z,37.49
2023-05-05T21:06:58.507Z,37.53
2023-05-05T21:10:01.398Z,37.59
2023-05-05T21:13:04.436Z,37.46
2023-05-05T21:16:07.424Z,37.62
2023-05-05T21:19:11.584Z,37.66
2023-05-05T21:22:14.381Z,37.41
2023-05-05T21:25:17.849Z,37.37
2023-05-05T21:28:20.653Z,37.53
2023-05-05T21:31:23.502Z,37.50
2023-05-05T21:34:27.692Z,37.65
2023-05-05T21:37:30.950Z,37.55
2023-05-05T21:40:33.713Z,37.25
2023-05-05T21:43:36.718Z,37.28
2023-05-05T21:46:39.622Z,37.55
2023-05-05T21:49:43.868Z,37.35
2023-05-05T21:52:46.586Z,37.48
2023-05-05T21:55:49.533Z,37.43
2023-05-05T21:58:52.263Z,37.32
2023-05-05T22:01:55.204Z,37.28
2023-05-05T22:04:59.496Z,37.38
2023-05-05T22:08:02.353Z,37.41
2023-05-05T22:11:05.205Z,37.07
2023-05-05T22:14:07.953Z,37.32
2023-05-05T22:17:10.745Z,37.03
2023-05-05T22:20:15.068Z,38.56
2023-05-05T22:23:20.925Z,38.62
2023-05-05T22:26:23.678Z,38.13
2023-05-05T22:29:26.571Z,38.44
2023-05-05T22:32:29.391Z,37.11
2023-05-05T22:35:33.626Z,37.61
2023-05-05T22:38:36.394Z,36.90
2023-05-05T22:41:39.175Z,37.05
2023-05-05T22:44:41.920Z,36.84
2023-05-05T22:47:44.759Z,36.73
2023-05-05T22:50:48.878Z,36.66
2023-05-05T22:53:51.682Z,36.91
2023-05-05T22:56:54.423Z,36.71
2023-05-05T22:59:57.256Z,37.04
2023-05-05T23:03:00.048Z,37.17
2023-05-05T23:06:04.272Z,36.77
2023-05-05T23:09:07.033Z,37.14
2023-05-05T23:12:09.788Z,37.03
2023-05-05T23:15:12.925Z,37.14
2023-05-05T23:18:15.796Z,37.24
2023-05-05T23:21:19.928Z,37.02
2023-05-05T23:24:22.814Z,37.16
2023-05-05T23:27:25.731Z,36.97
2023-05-05T23:30:28.504Z,37.05
2023-05-05T23:33:31.402Z,36.96
2023-05-05T23:36:35.531Z,37.20
2023-05-05T23:39:38.306Z,37.22
2023-05-05T23:42:41.075Z,37.54
2023-05-05T23:45:43.806Z,37.23
2023-05-05T23:48:46.646Z,37.45
2023-05-05T23:51:50.852Z,37.21
2023-05-05T23:54:53.642Z,37.25
2023-05-05T23:57:56.507Z,37.04
